Saturday, August 18, 2018, 3:19 AM EDT
Back to Local

KWVL, Waterville, Waterville Robert Lafleur Airport

Location: Waterville, ME, United States Lat: 44.533
Local Time: 3:19 AM EDT ( 7:19 GMT) Lon: -69.683
Time Zone: US/Eastern Elev: 334 ft

Show me the last for .
Show Decoded

2018-08-18 02:56 METAR KWVL 180656Z AUTO VRB03KT 3SM BR OVC002 21/21 A2977 RMK AO2 RAE06 SLP106
                 P0000 T02060206 $ =
2018-08-18 01:56 METAR KWVL 180556Z AUTO 00000KT 5SM -RA BR OVC002 20/19 A2979 RMK AO2 RAE19B54
                 SLP113 P0000 60005 T02000194 10200 20194 56024 $ =
2018-08-18 01:51 METAR KWVL 180551Z AUTO 00000KT 5SM BR OVC002 20/19 A2980 RMK AO2 RAE19 P0000 $
                 =
2018-08-18 01:24 METAR KWVL 180524Z AUTO 00000KT 9SM BKN004 20/19 A2982 RMK AO2 RAE19 P0000 $ =
2018-08-18 01:17 METAR KWVL 180517Z AUTO 00000KT 9SM -RA SCT004 BKN009 20/19 A2983 RMK AO2 P0000
                 $ =
2018-08-18 01:10 METAR KWVL 180510Z AUTO 00000KT 10SM -RA FEW004 SCT011 20/19 A2984 RMK AO2 P0000
                 $ =
2018-08-18 00:56 METAR KWVL 180456Z AUTO 00000KT 8SM -RA FEW006 BKN010 OVC021 20/19 A2984 RMK AO2
                 TSE04RAB39 CIG 008V014 SLP129 P0001 T02000194 402560111 $ =
2018-08-18 00:26 METAR KWVL 180426Z AUTO 27003KT 9SM FEW006 SCT017 BKN025 20/19 A2986 RMK AO2 LTG
                 DSNT E AND SE TSE04 $ =
2018-08-18 00:10 METAR KWVL 180410Z AUTO 00000KT 7SM FEW029 19/19 A2986 RMK AO2 LTG DSNT NE AND
                 SE TSE04 $ =
2018-08-17 23:56 METAR KWVL 180356Z AUTO 00000KT 8SM VCTS FEW007 19/19 A2987 RMK AO2 LTG DSNT SE
                 AND S TSB15RAB28E47 SLP138 P0004 T01940189 $ =
2018-08-17 23:52 METAR KWVL 180352Z AUTO 00000KT 9SM VCTS SCT007 19/19 A2986 RMK AO2 LTG DSNT SE
                 AND S TSB15RAB28E47 P0004 $ =
2018-08-17 23:18 METAR KWVL 180318Z AUTO VRB04KT 10SM VCTS BKN009 BKN013 BKN023 20/19 A2989 RMK
                 AO2 LTG DSNT S AND SW TSB15 $ =
2018-08-17 23:13 METAR KWVL 180313Z AUTO 00000KT 10SM BKN011 BKN023 20/19 A2989 RMK AO2 LTG DSNT
                 SW $ =
2018-08-17 22:56 METAR KWVL 180256Z AUTO 00000KT 10SM FEW022 20/19 A2990 RMK AO2 LTG DSNT SW
                 SLP147 T02000189 58017 $ =
2018-08-17 22:05 METAR KWVL 180205Z AUTO 19003KT 10SM FEW013 SCT028 20/18 A2992 RMK AO2 $ =
2018-08-17 21:56 METAR KWVL 180156Z AUTO VRB03KT 10SM SCT013 BKN028 20/18 A2993 RMK AO2 SLP158
                 T02000183 $ =
2018-08-17 21:51 METAR KWVL 180151Z AUTO 00000KT 10SM SCT013 BKN028 20/18 A2993 RMK AO2 $ =
2018-08-17 21:30 METAR KWVL 180130Z AUTO 20004KT 10SM SCT013 20/18 A2994 RMK AO2 $ =
2018-08-17 20:56 METAR KWVL 180056Z AUTO 00000KT 10SM OVC013 19/17 A2994 RMK AO2 SLP165 T01940167
                 $ =
2018-08-17 20:53 METAR KWVL 180053Z AUTO 00000KT 10SM OVC013 19/17 A2994 RMK AO2 $ =
2018-08-17 20:38 METAR KWVL 180038Z AUTO 00000KT 10SM BKN015 19/16 A2995 RMK AO2 $ =
2018-08-17 19:56 METAR KWVL 172356Z AUTO 00000KT 10SM CLR 19/16 A2994 RMK AO2 RAB08E22 SLP164
                 P0000 60000 T01940156 10256 20194 55013 $ =
2018-08-17 18:56 METAR KWVL 172256Z AUTO VRB03KT 10SM CLR 22/15 A2994 RMK AO2 SLP163 T02170150 =
2018-08-17 17:56 METAR KWVL 172156Z AUTO 20004KT 10SM FEW050 22/15 A2996 RMK AO2 SLP172 T02220150
                 =
2018-08-17 16:56 METAR KWVL 172056Z AUTO 21006KT 10SM CLR 24/16 A2998 RMK AO2 SLP176 T02390156
                 56016 =
2018-08-17 15:56 METAR KWVL 171956Z AUTO VRB05KT 10SM CLR 24/17 A2999 RMK AO2 SLP179 T02440167 =
2018-08-17 14:56 METAR KWVL 171856Z AUTO 21005KT 10SM CLR 25/16 A3001 RMK AO2 SLP187 T02500161 =
2018-08-17 13:56 METAR KWVL 171756Z AUTO VRB05KT 10SM CLR 24/16 A3002 RMK AO2 SLP191 T02440156
                 10250 20156 58020 =
2018-08-17 12:56 METAR KWVL 171656Z AUTO VRB03KT 10SM CLR 24/15 A3005 RMK AO2 SLP199 T02390150 =
2018-08-17 11:56 METAR KWVL 171556Z AUTO VRB03KT 10SM CLR 23/14 A3007 RMK AO2 SLP208 T02280144 =
2018-08-17 10:56 METAR KWVL 171456Z AUTO VRB03KT 10SM CLR 21/14 A3008 RMK AO2 SLP212 T02110139
                 58013 =
2018-08-17 09:56 METAR KWVL 171356Z AUTO 00000KT 10SM CLR 20/14 A3009 RMK AO2 SLP215 T02000139 =
2018-08-17 08:56 METAR KWVL 171256Z AUTO 00000KT 10SM CLR 18/13 A3011 RMK AO2 SLP222 T01780133 $
                 =
2018-08-17 07:56 METAR KWVL 171156Z AUTO 00000KT 10SM CLR 15/13 A3012 RMK AO2 SLP225 T01500128
                 10150 20111 51009 $ =
2018-08-17 06:56 METAR KWVL 171056Z AUTO 00000KT 10SM CLR 12/12 A3012 RMK AO2 SLP225 T01220117 $
                 =
2018-08-17 05:56 METAR KWVL 170956Z AUTO 00000KT 10SM CLR 12/11 A3010 RMK AO2 SLP220 T01170111 $
                 =
2018-08-17 04:56 METAR KWVL 170856Z AUTO 00000KT 10SM CLR 12/11 A3009 RMK AO2 SLP215 T01170111
                 53003 $ =
2018-08-17 03:56 METAR KWVL 170756Z AUTO 00000KT 10SM CLR 12/11 A3008 RMK AO2 SLP212 T01170111 $
                 =

Support USWX by starting your Amazon purchase here.